createdAt,value
2017-08-31T00:00:48.026Z,91.75
2017-08-31T00:01:57.976Z,91.08
2017-08-31T00:03:07.926Z,90.7
2017-08-31T00:04:17.875Z,90.99
2017-08-31T00:05:28.138Z,91.27
2017-08-31T00:06:38.430Z,90.99
2017-08-31T00:07:48.383Z,90.8
2017-08-31T00:08:58.648Z,90.99
2017-08-31T00:10:08.923Z,90.89
2017-08-31T00:11:19.187Z,90.89
2017-08-31T00:12:29.454Z,90.7
2017-08-31T00:13:39.718Z,90.8
2017-08-31T00:14:49.981Z,91.17
2017-08-31T00:16:00.254Z,90.61
2017-08-31T00:17:09.893Z,90.61
2017-08-31T00:18:20.159Z,90.61
2017-08-31T00:19:30.425Z,91.75
2017-08-31T00:20:40.691Z,91.94
2017-08-31T00:21:50.633Z,92.03
2017-08-31T00:23:00.899Z,91.56
2017-08-31T00:24:10.846Z,91.46
2017-08-31T00:25:20.797Z,92.13
2017-08-31T00:26:31.060Z,91.94
2017-08-31T00:27:41.004Z,91.75
2017-08-31T00:28:51.269Z,91.17
2017-08-31T00:30:01.542Z,91.46
2017-08-31T00:31:11.810Z,91.08
2017-08-31T00:32:21.751Z,91.37
2017-08-31T00:33:32.040Z,91.46
2017-08-31T00:34:42.016Z,91.75
2017-08-31T00:35:51.972Z,91.46
2017-08-31T00:37:02.238Z,91.94
2017-08-31T00:38:12.501Z,91.65
2017-08-31T00:39:22.768Z,91.84
2017-08-31T00:40:33.037Z,91.94
2017-08-31T00:41:43.306Z,91.56
2017-08-31T00:42:53.281Z,92.03
2017-08-31T00:44:03.544Z,91.65
2017-08-31T00:45:13.489Z,91.56
2017-08-31T00:46:23.436Z,91.65
2017-08-31T00:47:33.710Z,91.56
2017-08-31T00:48:43.654Z,91.17
2017-08-31T00:49:53.595Z,91.37
2017-08-31T00:51:03.869Z,91.65
2017-08-31T00:52:14.137Z,91.89
2017-08-31T00:53:24.085Z,91.61
2017-08-31T00:54:34.354Z,91.65
2017-08-31T00:55:44.618Z,91.99
2017-08-31T00:56:54.885Z,91.46
2017-08-31T00:58:05.151Z,91.8
2017-08-31T00:59:14.452Z,91.89
2017-08-31T01:00:24.718Z,92.08
2017-08-31T01:01:34.987Z,92.08
2017-08-31T01:02:44.931Z,92.75
2017-08-31T01:03:55.199Z,92.84
2017-08-31T01:05:05.140Z,92.75
2017-08-31T01:06:15.083Z,92.27
2017-08-31T01:07:25.352Z,92.36
2017-08-31T01:08:35.623Z,92.84
2017-08-31T01:09:45.936Z,92.94
2017-08-31T01:10:55.880Z,93.04
2017-08-31T01:12:05.538Z,93.23
2017-08-31T01:13:15.480Z,93.13
2017-08-31T01:14:25.749Z,93.41
2017-08-31T01:15:35.695Z,93.51
2017-08-31T01:16:45.966Z,93.41
2017-08-31T01:17:55.908Z,93.51
2017-08-31T01:19:05.852Z,93.89
2017-08-31T01:20:16.114Z,94.08
2017-08-31T01:21:26.413Z,94.08
2017-08-31T01:22:36.356Z,94.27
2017-08-31T01:23:45.979Z,94.08
2017-08-31T01:24:56.253Z,93.41
2017-08-31T01:26:06.194Z,93.51
2017-08-31T01:27:16.135Z,93.46
2017-08-31T01:28:26.399Z,93.41
2017-08-31T01:29:36.345Z,92.84
2017-08-31T01:30:46.614Z,92.32
2017-08-31T01:31:56.882Z,92.03
2017-08-31T01:33:07.148Z,91.94
2017-08-31T01:34:17.415Z,92.89
2017-08-31T01:35:27.685Z,92.41
2017-08-31T01:36:37.639Z,91.56
2017-08-31T01:37:47.908Z,91.75
2017-08-31T01:38:57.530Z,91.94
2017-08-31T01:40:07.806Z,92.13
2017-08-31T01:41:18.106Z,92.6
2017-08-31T01:42:28.373Z,92.89
2017-08-31T01:43:38.636Z,92.51
2017-08-31T01:44:48.900Z,93.08
2017-08-31T01:45:59.166Z,92.79
2017-08-31T01:47:09.430Z,92.51
2017-08-31T01:48:19.693Z,92.41
2017-08-31T01:49:30.156Z,93.37
2017-08-31T01:50:40.423Z,92.89
2017-08-31T01:51:50.686Z,93.27
2017-08-31T01:53:00.627Z,93.18
2017-08-31T01:54:10.892Z,92.7
2017-08-31T01:55:21.160Z,92.7
2017-08-31T01:56:31.423Z,92.89
2017-08-31T01:57:41.369Z,92.51
2017-08-31T01:58:51.632Z,92.32
2017-08-31T02:00:01.903Z,92.7
2017-08-31T02:01:12.192Z,92.99
2017-08-31T02:02:22.474Z,92.89
2017-08-31T02:03:32.745Z,92.13
2017-08-31T02:04:42.688Z,92.32
2017-08-31T02:05:52.630Z,91.75
2017-08-31T02:07:02.249Z,92.22
2017-08-31T02:08:12.194Z,91.65
2017-08-31T02:09:22.146Z,91.75
2017-08-31T02:10:32.425Z,92.03
2017-08-31T02:11:42.691Z,91.65
2017-08-31T02:12:52.955Z,91.46
2017-08-31T02:14:03.220Z,91.56
2017-08-31T02:15:13.484Z,92.6
2017-08-31T02:16:23.430Z,92.79
2017-08-31T02:17:33.694Z,92.79
2017-08-31T02:18:43.668Z,92.6
2017-08-31T02:19:53.303Z,92.22
2017-08-31T02:21:03.575Z,92.32
2017-08-31T02:22:13.853Z,92.51
2017-08-31T02:23:24.115Z,91.94
2017-08-31T02:24:34.388Z,91.17
2017-08-31T02:25:44.658Z,91.37
2017-08-31T02:26:54.931Z,91.75
2017-08-31T02:28:05.198Z,91.65
2017-08-31T02:29:14.828Z,91.65
2017-08-31T02:30:25.098Z,92.03
2017-08-31T02:31:34.405Z,92.6
2017-08-31T02:32:44.036Z,92.32
2017-08-31T02:33:54.301Z,92.32
2017-08-31T02:35:04.572Z,91.94
2017-08-31T02:36:14.838Z,92.22
2017-08-31T02:37:24.785Z,91.94
2017-08-31T02:38:34.732Z,91.65
2017-08-31T02:39:44.682Z,91.56
2017-08-31T02:40:54.949Z,91.65
2017-08-31T02:42:05.219Z,92.03
2017-08-31T02:43:14.860Z,92.03
2017-08-31T02:44:24.820Z,92.79
2017-08-31T02:45:35.100Z,92.79
2017-08-31T02:46:45.382Z,93.27
2017-08-31T02:47:55.334Z,93.08
2017-08-31T02:49:05.600Z,93.65
2017-08-31T02:50:15.548Z,93.37
2017-08-31T02:51:25.491Z,93.65
2017-08-31T02:52:34.798Z,93.46
2017-08-31T02:53:44.747Z,93.55
2017-08-31T02:54:55.013Z,93.65
2017-08-31T02:56:05.278Z,94.03
2017-08-31T02:57:15.224Z,93.55
2017-08-31T02:58:25.488Z,93.65
2017-08-31T02:59:35.754Z,93.65
2017-08-31T03:00:46.021Z,93.84
2017-08-31T03:01:56.301Z,93.65
2017-08-31T03:03:06.568Z,93.84
2017-08-31T03:04:16.513Z,93.65
2017-08-31T03:05:26.788Z,93.65
2017-08-31T03:06:36.734Z,93.94
2017-08-31T03:07:46.682Z,93.46
2017-08-31T03:08:56.947Z,93.94
2017-08-31T03:10:07.211Z,94.51
2017-08-31T03:11:17.479Z,94.7
2017-08-31T03:12:27.749Z,94.32
2017-08-31T03:13:37.692Z,94.32
2017-08-31T03:14:47.963Z,93.27
2017-08-31T03:15:58.227Z,93.74
2017-08-31T03:17:08.492Z,93.27
2017-08-31T03:18:18.761Z,93.65
2017-08-31T03:19:29.027Z,93.65
2017-08-31T03:20:39.294Z,93.94
2017-08-31T03:21:48.919Z,93.74
2017-08-31T03:22:59.197Z,92.7
2017-08-31T03:24:09.472Z,93.37
2017-08-31T03:25:19.418Z,92.79
2017-08-31T03:26:29.686Z,92.99
2017-08-31T03:27:39.310Z,92.89
2017-08-31T03:28:49.253Z,92.99
2017-08-31T03:29:59.516Z,93.08
2017-08-31T03:31:09.791Z,92.89
2017-08-31T03:32:19.414Z,92.13
2017-08-31T03:33:29.689Z,91.94
2017-08-31T03:34:39.633Z,92.32
2017-08-31T03:35:49.579Z,92.22
2017-08-31T03:36:59.843Z,92.41
2017-08-31T03:38:10.117Z,91.75
2017-08-31T03:39:19.750Z,91.65
2017-08-31T03:40:30.057Z,92.03
2017-08-31T03:41:39.999Z,91.65
2017-08-31T03:42:50.269Z,92.89
2017-08-31T03:44:00.534Z,94.13
2017-08-31T03:45:10.804Z,94.7
2017-08-31T03:46:20.746Z,94.51
2017-08-31T03:47:31.013Z,93.94
2017-08-31T03:48:41.280Z,94.51
2017-08-31T03:49:51.229Z,95.27
2017-08-31T03:51:01.172Z,94.89
2017-08-31T03:52:11.451Z,95.27
2017-08-31T03:53:21.720Z,94.51
2017-08-31T03:54:31.989Z,95.46
2017-08-31T03:55:41.932Z,96.22
2017-08-31T03:56:51.876Z,96.51
2017-08-31T03:58:01.822Z,95.56
2017-08-31T03:59:11.772Z,95.94
2017-08-31T04:00:21.726Z,95.27
2017-08-31T04:01:32.002Z,95.36
2017-08-31T04:02:41.950Z,94.89
2017-08-31T04:03:51.922Z,94.89
2017-08-31T04:05:01.871Z,94.79
2017-08-31T04:06:12.136Z,94.42
2017-08-31T04:07:22.080Z,94.7
2017-08-31T04:08:32.034Z,94.51
2017-08-31T04:09:41.982Z,95.27
2017-08-31T04:10:51.606Z,95.08
2017-08-31T04:12:01.882Z,93.94
2017-08-31T04:13:12.158Z,94.32
2017-08-31T04:14:22.104Z,93.84
2017-08-31T04:15:32.046Z,93.55
2017-08-31T04:16:41.991Z,93.27
2017-08-31T04:17:51.937Z,93.46
2017-08-31T04:19:02.210Z,93.08
2017-08-31T04:20:12.482Z,93.94
2017-08-31T04:21:22.434Z,93.65
2017-08-31T04:22:32.704Z,93.65
2017-08-31T04:23:42.979Z,93.94
2017-08-31T04:24:53.247Z,94.42
2017-08-31T04:26:03.190Z,94.32
2017-08-31T04:27:13.455Z,94.32
2017-08-31T04:28:23.401Z,94.89
2017-08-31T04:29:33.667Z,94.6
2017-08-31T04:30:43.930Z,94.6
2017-08-31T04:31:53.884Z,94.6
2017-08-31T04:33:04.156Z,94.89
2017-08-31T04:34:14.426Z,94.79
2017-08-31T04:35:24.696Z,94.89
2017-08-31T04:36:35.002Z,94.42
2017-08-31T04:37:44.630Z,94.42
2017-08-31T04:38:54.901Z,94.32
2017-08-31T04:40:04.846Z,94.51
2017-08-31T04:41:15.114Z,93.84
2017-08-31T04:42:25.057Z,93.84
2017-08-31T04:43:35.004Z,93.46
2017-08-31T04:44:44.949Z,93.84
2017-08-31T04:45:55.215Z,93.37
2017-08-31T04:47:05.479Z,93.27
2017-08-31T04:48:15.104Z,93.65
2017-08-31T04:49:25.377Z,93.65
2017-08-31T04:50:35.645Z,93.98
2017-08-31T04:51:45.909Z,93.55
2017-08-31T04:52:56.191Z,93.55
2017-08-31T04:54:06.456Z,93.74
2017-08-31T04:55:16.742Z,93.94
2017-08-31T04:56:27.014Z,94.08
2017-08-31T04:57:36.959Z,94.13
2017-08-31T04:58:46.905Z,94.46
2017-08-31T04:59:57.175Z,94.17
2017-08-31T05:01:07.121Z,93.84
2017-08-31T05:02:17.400Z,93.89
2017-08-31T05:03:27.023Z,93.7
2017-08-31T05:04:36.971Z,93.51
2017-08-31T05:05:46.922Z,93.51
2017-08-31T05:06:57.186Z,94.37
2017-08-31T05:08:07.454Z,95.03
2017-08-31T05:09:17.718Z,94.56
2017-08-31T05:10:27.663Z,95.32
2017-08-31T05:11:37.611Z,95.98
2017-08-31T05:12:47.877Z,96.46
2017-08-31T05:13:58.145Z,96.27
2017-08-31T05:15:08.090Z,95.89
2017-08-31T05:16:18.357Z,95.89
2017-08-31T05:17:28.302Z,95.51
2017-08-31T05:18:38.255Z,95.79
2017-08-31T05:19:48.623Z,95.98
2017-08-31T05:20:58.891Z,96.08
2017-08-31T05:22:08.838Z,96.08
2017-08-31T05:23:18.786Z,95.7
2017-08-31T05:24:29.055Z,96.27
2017-08-31T05:25:39.324Z,96.65
2017-08-31T05:26:49.603Z,96.27
2017-08-31T05:27:59.867Z,96.08
2017-08-31T05:29:09.812Z,96.55
2017-08-31T05:30:20.090Z,96.65
2017-08-31T05:31:30.038Z,96.27
2017-08-31T05:32:39.660Z,95.89
2017-08-31T05:33:49.926Z,96.27
2017-08-31T05:35:00.196Z,95.98
2017-08-31T05:36:09.823Z,96.17
2017-08-31T05:37:22.090Z,95.89
2017-08-31T05:38:32.045Z,94.93
2017-08-31T05:39:41.989Z,94.93
2017-08-31T05:40:52.271Z,95.32
2017-08-31T05:42:02.534Z,95.22
2017-08-31T05:43:12.487Z,95.03
2017-08-31T05:44:22.116Z,95.89
2017-08-31T05:45:32.067Z,96.27
2017-08-31T05:46:42.021Z,96.65
2017-08-31T05:47:52.289Z,96.46
2017-08-31T05:49:02.556Z,96.27
2017-08-31T05:50:12.828Z,96.84
2017-08-31T05:51:23.121Z,95.7
2017-08-31T05:52:33.069Z,96.65
2017-08-31T05:53:43.015Z,97.03
2017-08-31T05:54:53.335Z,96.84
2017-08-31T05:56:03.615Z,96.36
2017-08-31T05:57:13.881Z,96.27
2017-08-31T05:58:24.146Z,96.27
2017-08-31T05:59:34.425Z,96.75
2017-08-31T06:00:44.374Z,96.27
2017-08-31T06:01:54.644Z,96.55
2017-08-31T06:03:04.911Z,96.84
2017-08-31T06:04:15.179Z,97.51
2017-08-31T06:05:25.447Z,97.99
2017-08-31T06:06:35.722Z,96.65
2017-08-31T06:07:45.672Z,97.6
2017-08-31T06:08:56.079Z,97.03
2017-08-31T06:10:06.027Z,97.6
2017-08-31T06:11:15.981Z,97.41
2017-08-31T06:12:25.638Z,97.41
2017-08-31T06:13:35.588Z,97.22
2017-08-31T06:14:45.214Z,96.51
2017-08-31T06:15:55.483Z,96.84
2017-08-31T06:17:05.752Z,96.89
2017-08-31T06:18:16.018Z,96.65
2017-08-31T06:19:26.289Z,97.27
2017-08-31T06:20:36.561Z,96.6
2017-08-31T06:21:46.506Z,96.89
2017-08-31T06:22:56.453Z,96.51
2017-08-31T06:24:06.093Z,96.03
2017-08-31T06:25:16.040Z,96.41
2017-08-31T06:26:25.988Z,96.41
2017-08-31T06:27:36.260Z,96.12
2017-08-31T06:28:46.525Z,95.46
2017-08-31T06:29:56.805Z,95.94
2017-08-31T06:31:06.438Z,95.65
2017-08-31T06:32:16.713Z,96.6
2017-08-31T06:33:26.660Z,95.56
2017-08-31T06:34:36.284Z,95.56
2017-08-31T06:35:46.558Z,95.94
2017-08-31T06:36:56.507Z,96.22
2017-08-31T06:38:06.137Z,96.12
2017-08-31T06:39:16.404Z,96.12
2017-08-31T06:40:26.349Z,95.94
2017-08-31T06:41:36.419Z,96.12
2017-08-31T06:42:46.365Z,96.12
2017-08-31T06:43:56.313Z,95.36
2017-08-31T06:45:06.579Z,96.22
2017-08-31T06:46:16.528Z,95.56
2017-08-31T06:47:26.796Z,95.36
2017-08-31T06:48:36.099Z,95.65
2017-08-31T06:49:46.368Z,96.03
2017-08-31T06:50:56.313Z,95.75
2017-08-31T06:52:06.260Z,95.08
2017-08-31T06:53:16.836Z,95.17
2017-08-31T06:54:26.782Z,94.98
2017-08-31T06:55:36.408Z,95.08
2017-08-31T06:56:46.359Z,95.56
2017-08-31T06:57:56.302Z,95.65
2017-08-31T06:59:06.572Z,95.56
2017-08-31T07:00:16.845Z,95.56
2017-08-31T07:01:26.790Z,95.56
2017-08-31T07:02:36.739Z,95.84
2017-08-31T07:03:47.010Z,95.56
2017-08-31T07:04:57.299Z,95.75
2017-08-31T07:06:07.572Z,95.75
2017-08-31T07:07:17.841Z,95.65
2017-08-31T07:08:28.122Z,95.08
2017-08-31T07:09:37.426Z,93.84
2017-08-31T07:10:47.375Z,93.55
2017-08-31T07:11:57.645Z,93.74
2017-08-31T07:13:07.912Z,93.93
2017-08-31T07:14:17.861Z,94.7
2017-08-31T07:15:28.129Z,93.74
2017-08-31T07:16:38.098Z,93.32
2017-08-31T07:17:48.382Z,92.13
2017-08-31T07:18:58.662Z,92.6
2017-08-31T07:20:08.930Z,92.79
2017-08-31T07:21:19.204Z,93.22
2017-08-31T07:22:29.149Z,93.6
2017-08-31T07:23:39.419Z,92.36
2017-08-31T07:24:49.685Z,91.88
2017-08-31T07:25:59.630Z,91.31
2017-08-31T07:27:09.906Z,91.31
2017-08-31T07:28:19.855Z,91.22
2017-08-31T07:29:29.494Z,91.03
2017-08-31T07:30:39.764Z,91.41
2017-08-31T07:31:50.030Z,89.79
2017-08-31T07:32:59.997Z,89.79
2017-08-31T07:34:10.273Z,90.17
2017-08-31T07:35:20.561Z,90.84
2017-08-31T07:36:30.840Z,89.79
2017-08-31T07:37:40.808Z,89.5
2017-08-31T07:38:51.081Z,90.45
2017-08-31T07:40:01.028Z,90.26
2017-08-31T07:41:11.303Z,90.26
2017-08-31T07:42:21.259Z,90.45
2017-08-31T07:43:31.540Z,89.69
2017-08-31T07:44:41.494Z,90.45
2017-08-31T07:45:51.440Z,90.36
2017-08-31T07:47:01.709Z,89.03
2017-08-31T07:48:11.333Z,89.69
2017-08-31T07:49:21.280Z,89.89
2017-08-31T07:50:31.225Z,88.93
2017-08-31T07:51:41.172Z,89.4
2017-08-31T07:52:51.117Z,89.6
2017-08-31T07:54:01.385Z,89.79
2017-08-31T07:55:11.342Z,89.03
2017-08-31T07:56:21.287Z,90.45
2017-08-31T07:57:31.234Z,89.89
2017-08-31T07:58:41.188Z,89.5
2017-08-31T07:59:51.459Z,88.64
2017-08-31T08:01:01.727Z,89.54
2017-08-31T08:02:11.683Z,88.78
2017-08-31T08:03:21.959Z,88.88
2017-08-31T08:04:32.233Z,88.02
2017-08-31T08:05:42.183Z,88.69
2017-08-31T08:06:51.807Z,87.74
2017-08-31T08:08:02.148Z,87.16
2017-08-31T08:09:12.099Z,87.07
2017-08-31T08:10:22.369Z,87.16
2017-08-31T08:11:32.316Z,86.3
2017-08-31T08:12:42.581Z,86.69
2017-08-31T08:13:52.210Z,86.59
2017-08-31T08:15:02.485Z,86.78
2017-08-31T08:16:12.761Z,88.21
2017-08-31T08:17:23.031Z,87.16
2017-08-31T08:18:32.656Z,86.69
2017-08-31T08:19:42.637Z,86.11
2017-08-31T08:20:52.902Z,86.78
2017-08-31T08:22:03.200Z,86.11
2017-08-31T08:23:13.144Z,87.93
2017-08-31T08:24:23.418Z,87.83
2017-08-31T08:25:33.722Z,87.45
2017-08-31T08:26:43.676Z,87.07
2017-08-31T08:27:53.624Z,86.59
2017-08-31T08:29:03.889Z,86.78
2017-08-31T08:30:14.159Z,86.98
2017-08-31T08:31:24.427Z,86.78
2017-08-31T08:32:34.696Z,87.35
2017-08-31T08:33:44.976Z,87.35
2017-08-31T08:34:54.930Z,87.02
2017-08-31T08:36:05.205Z,87.4
2017-08-31T08:37:15.164Z,85.87
2017-08-31T08:38:25.432Z,84.72
2017-08-31T08:39:35.387Z,85.97
2017-08-31T08:40:45.331Z,85.64
2017-08-31T08:41:55.281Z,86.25
2017-08-31T08:43:05.236Z,86.44
2017-08-31T08:44:15.506Z,85.49
2017-08-31T08:45:24.815Z,85.39
2017-08-31T08:46:35.090Z,85.87
2017-08-31T08:47:45.358Z,85.77
2017-08-31T08:48:55.312Z,84.92
2017-08-31T08:50:05.261Z,85.58
2017-08-31T08:51:15.213Z,86.35
2017-08-31T08:52:25.163Z,86.73
2017-08-31T08:53:35.434Z,85.21
2017-08-31T08:54:45.394Z,86.25
2017-08-31T08:55:55.341Z,84.92
2017-08-31T08:57:04.974Z,85.3
2017-08-31T08:58:15.254Z,84.34
2017-08-31T08:59:24.558Z,84.72
2017-08-31T09:00:34.513Z,83.96
2017-08-31T09:01:44.782Z,84.25
2017-08-31T09:02:54.423Z,85.68
2017-08-31T09:04:04.695Z,84.25
2017-08-31T09:05:14.966Z,83.53
2017-08-31T09:06:24.917Z,84.06
2017-08-31T09:07:34.867Z,83.77
2017-08-31T09:08:45.136Z,85.3
2017-08-31T09:09:54.442Z,85.44
2017-08-31T09:11:04.391Z,84
2017-08-31T09:12:14.345Z,83.53
2017-08-31T09:13:24.869Z,84.39
2017-08-31T09:14:35.141Z,82.76
2017-08-31T09:15:45.417Z,82.76
2017-08-31T09:16:55.362Z,84.58
2017-08-31T09:18:05.327Z,84.2
2017-08-31T09:19:14.960Z,83.62
2017-08-31T09:20:25.232Z,82.38
2017-08-31T09:21:35.500Z,83.05
2017-08-31T09:22:45.449Z,83.18
2017-08-31T09:23:55.402Z,83.57
2017-08-31T09:25:07.454Z,82.61
2017-08-31T09:26:17.083Z,82.32
2017-08-31T09:27:26.715Z,81.27
2017-08-31T09:28:36.342Z,81.22
2017-08-31T09:29:46.613Z,80.65
2017-08-31T09:30:56.890Z,81.47
2017-08-31T09:32:06.839Z,80.65
2017-08-31T09:33:16.790Z,80.93
2017-08-31T09:34:26.739Z,80.41
2017-08-31T09:35:37.009Z,80.13
2017-08-31T09:36:46.635Z,81.56
2017-08-31T09:37:56.905Z,81.18
2017-08-31T09:39:06.863Z,80.9
2017-08-31T09:40:17.133Z,80.41
2017-08-31T09:41:27.404Z,80.8
2017-08-31T09:42:37.673Z,81.09
2017-08-31T09:43:47.945Z,81.95
2017-08-31T09:44:58.221Z,81.85
2017-08-31T09:46:08.511Z,81.76
2017-08-31T09:47:18.460Z,79.75
2017-08-31T09:48:28.730Z,80.04
2017-08-31T09:49:39.001Z,80.9
2017-08-31T09:50:48.951Z,80.32
2017-08-31T09:51:59.222Z,80.22
2017-08-31T09:53:09.173Z,81.09
2017-08-31T09:54:19.129Z,81.76
2017-08-31T09:55:28.435Z,81.56
2017-08-31T09:56:38.090Z,82.23
2017-08-31T09:57:48.387Z,81.99
2017-08-31T09:58:58.340Z,77.69
2017-08-31T10:00:08.294Z,79.88
2017-08-31T10:01:18.244Z,80.36
2017-08-31T10:02:28.203Z,78.07
2017-08-31T10:03:38.475Z,78.26
2017-08-31T10:04:48.431Z,78.64
2017-08-31T10:05:58.389Z,79.22
2017-08-31T10:07:08.338Z,79.02
2017-08-31T10:08:18.294Z,78.74
2017-08-31T10:09:27.925Z,79.17
2017-08-31T10:10:37.876Z,80.13
2017-08-31T10:11:48.147Z,78.79
2017-08-31T10:12:58.422Z,77.45
2017-08-31T10:14:08.695Z,78.22
2017-08-31T10:15:18.644Z,79.79
2017-08-31T10:16:28.920Z,79.31
2017-08-31T10:17:39.190Z,78.07
2017-08-31T10:18:48.828Z,77.87
2017-08-31T10:19:59.096Z,78.07
2017-08-31T10:21:09.377Z,77.78
2017-08-31T10:22:19.656Z,77.69
2017-08-31T10:23:29.934Z,77.87
2017-08-31T10:24:40.205Z,76.77
2017-08-31T10:25:50.484Z,75.87
2017-08-31T10:27:00.756Z,76.06
2017-08-31T10:28:11.030Z,76.73
2017-08-31T10:29:20.709Z,76.82
2017-08-31T10:30:30.660Z,75.91
2017-08-31T10:31:40.287Z,76.54
2017-08-31T10:32:50.242Z,77.15
2017-08-31T10:34:00.520Z,77.11
2017-08-31T10:35:10.472Z,78.2
2017-08-31T10:36:20.747Z,78.68
2017-08-31T10:37:30.380Z,79.54
2017-08-31T10:38:40.649Z,77.44
2017-08-31T10:39:50.607Z,76.86
2017-08-31T10:41:00.893Z,76.86
2017-08-31T10:42:10.849Z,76.42
2017-08-31T10:43:20.804Z,76.42
2017-08-31T10:44:31.083Z,77.38
2017-08-31T10:45:40.387Z,77.86
2017-08-31T10:46:50.338Z,78.14
2017-08-31T10:48:00.286Z,77.23
2017-08-31T10:49:10.560Z,76.94
2017-08-31T10:50:20.833Z,76.94
2017-08-31T10:51:31.120Z,76.56
2017-08-31T10:52:41.393Z,76.65
2017-08-31T10:53:51.664Z,76.18
2017-08-31T10:55:01.617Z,76.18
2017-08-31T10:56:11.895Z,75.7
2017-08-31T10:57:22.167Z,75.45
2017-08-31T10:58:32.440Z,76.4
2017-08-31T10:59:42.388Z,75.93
2017-08-31T11:00:52.658Z,75.54
2017-08-31T11:02:02.932Z,75.26
2017-08-31T11:03:12.882Z,74.49
2017-08-31T11:04:22.833Z,73.82
2017-08-31T11:05:32.464Z,72.8
2017-08-31T11:06:42.092Z,72.71
2017-08-31T11:07:52.043Z,73.57
2017-08-31T11:09:01.997Z,73.47
2017-08-31T11:10:11.949Z,72.99
2017-08-31T11:11:22.233Z,73.86
2017-08-31T11:12:32.507Z,74.05
2017-08-31T11:13:42.459Z,73.66
2017-08-31T11:14:52.090Z,74.72
2017-08-31T11:16:02.365Z,75.2
2017-08-31T11:17:12.636Z,74.33
2017-08-31T11:18:22.587Z,74.72
2017-08-31T11:19:32.867Z,74.62
2017-08-31T11:20:43.139Z,75.29
2017-08-31T11:21:52.767Z,74.05
2017-08-31T11:23:03.038Z,75.48
2017-08-31T11:24:13.331Z,73.91
2017-08-31T11:25:23.285Z,74.01
2017-08-31T11:26:33.556Z,73.72
2017-08-31T11:27:44.233Z,73.82
2017-08-31T11:28:55.253Z,73.63
2017-08-31T11:30:06.390Z,74.58
2017-08-31T11:31:16.892Z,75.16
2017-08-31T11:32:27.679Z,74.97
2017-08-31T11:33:38.297Z,74.77
2017-08-31T11:34:49.088Z,74.58
2017-08-31T11:35:59.895Z,75.83
2017-08-31T11:37:10.834Z,76.4
2017-08-31T11:38:21.612Z,76.4
2017-08-31T11:39:31.878Z,76.21
2017-08-31T11:40:42.155Z,76.31
2017-08-31T11:41:52.423Z,76.5
2017-08-31T11:43:02.699Z,76.6
2017-08-31T11:44:12.981Z,76.69
2017-08-31T11:45:23.253Z,76.6
2017-08-31T11:46:33.202Z,76.31
2017-08-31T11:47:43.153Z,76.31
2017-08-31T11:48:53.458Z,75.93
2017-08-31T11:50:03.731Z,75.89
2017-08-31T11:51:13.679Z,76.75
2017-08-31T11:52:23.306Z,74.74
2017-08-31T11:53:33.583Z,75.41
2017-08-31T11:54:43.898Z,75.98
2017-08-31T11:55:54.176Z,75.51
2017-08-31T11:57:04.445Z,76.65
2017-08-31T11:58:14.073Z,75.79
2017-08-31T11:59:23.381Z,75.51
2017-08-31T12:00:32.687Z,74.36
2017-08-31T12:01:42.960Z,73.4
2017-08-31T12:02:52.588Z,74.84
2017-08-31T12:04:02.858Z,75.79
2017-08-31T12:05:13.129Z,75.22
2017-08-31T12:06:23.403Z,74.07
2017-08-31T12:07:33.356Z,74.65
2017-08-31T12:08:43.676Z,72.92
2017-08-31T12:09:53.309Z,72.73
2017-08-31T12:11:03.586Z,73.69
2017-08-31T12:12:13.543Z,73.79
2017-08-31T12:13:23.817Z,73.97
2017-08-31T12:14:34.091Z,72.54
2017-08-31T12:15:44.052Z,73.21
2017-08-31T12:16:54.340Z,73.59
2017-08-31T12:18:04.608Z,73.59
2017-08-31T12:19:14.562Z,73.69
2017-08-31T12:20:24.523Z,73.97
2017-08-31T12:21:34.473Z,75.79
2017-08-31T12:22:44.419Z,74.65
2017-08-31T12:23:54.368Z,74.07
2017-08-31T12:25:04.320Z,75.22
2017-08-31T12:26:14.274Z,75.02
2017-08-31T12:27:24.230Z,75.35
2017-08-31T12:28:34.181Z,76.02
2017-08-31T12:29:44.456Z,75.45
2017-08-31T12:30:54.408Z,74.77
2017-08-31T12:32:04.680Z,74.11
2017-08-31T12:33:14.954Z,74.68
2017-08-31T12:34:25.223Z,74.58
2017-08-31T12:35:35.178Z,73.91
2017-08-31T12:36:45.136Z,73.91
2017-08-31T12:37:55.406Z,72.99
2017-08-31T12:39:05.681Z,73.19
2017-08-31T12:40:15.949Z,73.66
2017-08-31T12:41:25.932Z,72.8
2017-08-31T12:42:36.201Z,72.23
2017-08-31T12:43:46.471Z,72.13
2017-08-31T12:44:56.739Z,71.94
2017-08-31T12:46:06.694Z,71.66
2017-08-31T12:47:16.962Z,70.89
2017-08-31T12:48:26.912Z,71.84
2017-08-31T12:49:36.540Z,72.03
2017-08-31T12:50:46.809Z,71.84
2017-08-31T12:51:56.764Z,72.99
2017-08-31T12:53:06.714Z,73.09
2017-08-31T12:54:16.714Z,72.8
2017-08-31T12:55:26.989Z,72.99
2017-08-31T12:56:37.268Z,72.23
2017-08-31T12:57:46.899Z,72.61
2017-08-31T12:58:56.850Z,72.99
2017-08-31T13:00:06.483Z,72.03
2017-08-31T13:01:16.749Z,71.94
2017-08-31T13:02:26.709Z,71.84
2017-08-31T13:03:36.658Z,72.61
2017-08-31T13:04:46.615Z,71.94
2017-08-31T13:05:56.564Z,71.27
2017-08-31T13:07:06.837Z,71.37
2017-08-31T13:08:16.788Z,71.37
2017-08-31T13:09:26.739Z,70.98
2017-08-31T13:10:36.402Z,70.79
2017-08-31T13:11:46.678Z,71.46
2017-08-31T13:12:56.952Z,71.27
2017-08-31T13:14:06.582Z,73.19
2017-08-31T13:15:16.852Z,73.38
2017-08-31T13:16:27.133Z,74.15
2017-08-31T13:17:37.081Z,72.61
2017-08-31T13:18:47.355Z,72.9
2017-08-31T13:19:57.309Z,72.32
2017-08-31T13:21:07.269Z,72.8
2017-08-31T13:22:17.543Z,73.19
2017-08-31T13:23:27.166Z,72.61
2017-08-31T13:24:37.436Z,71.66
2017-08-31T13:25:47.709Z,71.08
2017-08-31T13:26:57.659Z,71.94
2017-08-31T13:28:07.285Z,73.09
2017-08-31T13:29:17.243Z,73.66
2017-08-31T13:30:27.190Z,73.44
2017-08-31T13:31:37.142Z,72.48
2017-08-31T13:32:47.091Z,73.05
2017-08-31T13:33:56.405Z,72.29
2017-08-31T13:35:06.353Z,71.91
2017-08-31T13:36:16.311Z,71.71
2017-08-31T13:37:26.583Z,72.09
2017-08-31T13:38:36.210Z,72.58
2017-08-31T13:39:46.478Z,73.72
2017-08-31T13:40:56.749Z,74.2
2017-08-31T13:42:07.025Z,73.72
2017-08-31T13:43:16.973Z,75.98
2017-08-31T13:44:26.600Z,75.41
2017-08-31T13:45:36.547Z,75.31
2017-08-31T13:46:46.820Z,74.84
2017-08-31T13:47:57.143Z,74.65
2017-08-31T13:49:07.095Z,75.12
2017-08-31T13:50:17.373Z,74.55
2017-08-31T13:51:27.327Z,74.36
2017-08-31T13:52:37.274Z,75.47
2017-08-31T13:53:47.545Z,75.85
2017-08-31T13:54:57.819Z,76.71
2017-08-31T13:56:07.456Z,77.19
2017-08-31T13:57:17.080Z,77.09
2017-08-31T13:58:27.400Z,77.95
2017-08-31T13:59:37.354Z,77.95
2017-08-31T14:00:47.304Z,77.95
2017-08-31T14:01:57.251Z,78.91
2017-08-31T14:03:06.881Z,78.01
2017-08-31T14:04:16.833Z,78.34
2017-08-31T14:05:27.131Z,78.2
2017-08-31T14:06:37.088Z,77.25
2017-08-31T14:07:47.363Z,78.39
2017-08-31T14:08:57.630Z,78.49
2017-08-31T14:10:07.579Z,79.06
2017-08-31T14:11:17.529Z,79.16
2017-08-31T14:12:27.805Z,79.25
2017-08-31T14:13:38.076Z,79.93
2017-08-31T14:14:48.352Z,79.64
2017-08-31T14:15:58.618Z,80.11
2017-08-31T14:17:08.921Z,80.3
2017-08-31T14:18:18.866Z,80.3
2017-08-31T14:19:28.835Z,79.73
2017-08-31T14:20:38.783Z,80.11
2017-08-31T14:21:49.048Z,80.21
2017-08-31T14:22:59.001Z,80.98
2017-08-31T14:24:09.276Z,81.55
2017-08-31T14:25:19.552Z,80.79
2017-08-31T14:26:29.500Z,81.65
2017-08-31T14:27:39.448Z,81.93
2017-08-31T14:28:49.726Z,82.98
2017-08-31T14:29:59.991Z,81.74
2017-08-31T14:31:09.635Z,82.79
2017-08-31T14:32:19.582Z,81.74
2017-08-31T14:33:29.850Z,81.16
2017-08-31T14:34:40.119Z,82.03
2017-08-31T14:35:50.065Z,83.37
2017-08-31T14:37:00.336Z,83.17
2017-08-31T14:38:10.282Z,82.89
2017-08-31T14:39:20.230Z,82.22
2017-08-31T14:40:30.550Z,82.79
2017-08-31T14:41:40.823Z,83.37
2017-08-31T14:42:51.091Z,82.6
2017-08-31T14:44:01.361Z,82.89
2017-08-31T14:45:11.307Z,82.6
2017-08-31T14:46:23.561Z,82.03
2017-08-31T14:47:33.831Z,82.31
2017-08-31T14:48:43.777Z,83.08
2017-08-31T14:49:54.059Z,83.37
2017-08-31T14:51:04.327Z,83.27
2017-08-31T14:52:20.079Z,83.37
2017-08-31T14:53:30.349Z,83.75
2017-08-31T14:54:40.621Z,84.42
2017-08-31T14:55:50.892Z,83.75
2017-08-31T14:57:00.838Z,83.37
2017-08-31T14:58:10.936Z,83.65
2017-08-31T14:59:21.207Z,82.22
2017-08-31T15:00:31.478Z,82.79
2017-08-31T15:01:41.752Z,82.89
2017-08-31T15:02:52.029Z,83.08
2017-08-31T15:04:02.300Z,83.61
2017-08-31T15:05:12.250Z,83.51